sensor_id;sensor_type;location;lat;lon;timestamp;temperature;humidity
16970;DHT22;8601;48.718;8.992;2023-06-10T00:00:50;18.40;72.30
16970;DHT22;8601;48.718;8.992;2023-06-10T00:03:17;18.30;73.20
16970;DHT22;8601;48.718;8.992;2023-06-10T00:05:44;18.30;73.50
16970;DHT22;8601;48.718;8.992;2023-06-10T00:08:11;18.30;74.30
16970;DHT22;8601;48.718;8.992;2023-06-10T00:10:38;18.30;73.70
16970;DHT22;8601;48.718;8.992;2023-06-10T00:13:07;18.20;73.70
16970;DHT22;8601;48.718;8.992;2023-06-10T00:15:34;18.20;73.90
16970;DHT22;8601;48.718;8.992;2023-06-10T00:18:02;18.20;74.10
16970;DHT22;8601;48.718;8.992;2023-06-10T00:20:29;18.20;74.00
16970;DHT22;8601;48.718;8.992;2023-06-10T00:22:58;18.20;74.00
16970;DHT22;8601;48.718;8.992;2023-06-10T00:25:26;18.20;74.40
16970;DHT22;8601;48.718;8.992;2023-06-10T00:27:53;18.20;74.40
16970;DHT22;8601;48.718;8.992;2023-06-10T00:30:22;18.10;74.30
16970;DHT22;8601;48.718;8.992;2023-06-10T00:32:48;18.10;74.50
16970;DHT22;8601;48.718;8.992;2023-06-10T00:35:15;18.20;74.50
16970;DHT22;8601;48.718;8.992;2023-06-10T00:37:42;18.20;74.70
16970;DHT22;8601;48.718;8.992;2023-06-10T00:40:10;18.20;74.80
16970;DHT22;8601;48.718;8.992;2023-06-10T00:42:37;18.20;74.80
16970;DHT22;8601;48.718;8.992;2023-06-10T00:45:05;18.20;74.20
16970;DHT22;8601;48.718;8.992;2023-06-10T00:47:34;18.10;74.60
16970;DHT22;8601;48.718;8.992;2023-06-10T00:50:02;18.10;75.20
16970;DHT22;8601;48.718;8.992;2023-06-10T00:52:29;18.00;75.30
16970;DHT22;8601;48.718;8.992;2023-06-10T00:54:56;17.90;75.80
16970;DHT22;8601;48.718;8.992;2023-06-10T00:57:24;17.80;76.40
16970;DHT22;8601;48.718;8.992;2023-06-10T00:59:52;17.90;76.00
16970;DHT22;8601;48.718;8.992;2023-06-10T01:02:19;17.90;76.00
16970;DHT22;8601;48.718;8.992;2023-06-10T01:04:47;17.90;76.40
16970;DHT22;8601;48.718;8.992;2023-06-10T01:07:19;17.80;76.60
16970;DHT22;8601;48.718;8.992;2023-06-10T01:09:54;17.90;76.70
16970;DHT22;8601;48.718;8.992;2023-06-10T01:12:30;17.80;76.80
16970;DHT22;8601;48.718;8.992;2023-06-10T01:14:59;17.80;77.10
16970;DHT22;8601;48.718;8.992;2023-06-10T01:17:26;17.80;77.10
16970;DHT22;8601;48.718;8.992;2023-06-10T01:19:55;17.80;76.90
16970;DHT22;8601;48.718;8.992;2023-06-10T01:22:25;17.80;77.20
16970;DHT22;8601;48.718;8.992;2023-06-10T01:24:54;17.60;77.70
16970;DHT22;8601;48.718;8.992;2023-06-10T01:27:26;17.60;77.80
16970;DHT22;8601;48.718;8.992;2023-06-10T01:29:59;17.60;77.90
16970;DHT22;8601;48.718;8.992;2023-06-10T01:32:32;17.60;77.80
16970;DHT22;8601;48.718;8.992;2023-06-10T01:35:02;17.60;77.70
16970;DHT22;8601;48.718;8.992;2023-06-10T01:37:31;17.70;77.80
16970;DHT22;8601;48.718;8.992;2023-06-10T01:39:59;17.60;77.80
16970;DHT22;8601;48.718;8.992;2023-06-10T01:42:28;17.60;77.90
16970;DHT22;8601;48.718;8.992;2023-06-10T01:44:55;17.60;78.40
16970;DHT22;8601;48.718;8.992;2023-06-10T01:47:23;17.60;78.70
16970;DHT22;8601;48.718;8.992;2023-06-10T01:49:49;17.60;79.00
16970;DHT22;8601;48.718;8.992;2023-06-10T01:52:16;17.60;78.70
16970;DHT22;8601;48.718;8.992;2023-06-10T01:54:45;17.40;78.90
16970;DHT22;8601;48.718;8.992;2023-06-10T01:57:12;17.40;79.20
16970;DHT22;8601;48.718;8.992;2023-06-10T01:59:38;17.30;79.60
16970;DHT22;8601;48.718;8.992;2023-06-10T02:02:07;17.30;79.90
16970;DHT22;8601;48.718;8.992;2023-06-10T02:04:34;17.20;79.80
16970;DHT22;8601;48.718;8.992;2023-06-10T02:07:01;17.10;79.90
16970;DHT22;8601;48.718;8.992;2023-06-10T02:09:29;17.10;80.20
16970;DHT22;8601;48.718;8.992;2023-06-10T02:11:57;17.00;80.50
16970;DHT22;8601;48.718;8.992;2023-06-10T02:14:24;17.00;81.00
16970;DHT22;8601;48.718;8.992;2023-06-10T02:16:51;17.10;80.90
16970;DHT22;8601;48.718;8.992;2023-06-10T02:19:22;17.10;80.90
16970;DHT22;8601;48.718;8.992;2023-06-10T02:21:50;17.10;81.10
16970;DHT22;8601;48.718;8.992;2023-06-10T02:24:17;17.00;82.00
16970;DHT22;8601;48.718;8.992;2023-06-10T02:26:44;17.00;81.80
16970;DHT22;8601;48.718;8.992;2023-06-10T02:29:14;16.90;81.90
16970;DHT22;8601;48.718;8.992;2023-06-10T02:31:42;16.90;81.30
16970;DHT22;8601;48.718;8.992;2023-06-10T02:34:09;16.90;81.20
16970;DHT22;8601;48.718;8.992;2023-06-10T02:36:36;16.90;81.30
16970;DHT22;8601;48.718;8.992;2023-06-10T02:39:04;16.90;82.50
16970;DHT22;8601;48.718;8.992;2023-06-10T02:41:30;16.90;81.90
16970;DHT22;8601;48.718;8.992;2023-06-10T02:43:57;16.90;81.70
16970;DHT22;8601;48.718;8.992;2023-06-10T02:46:26;16.90;81.90
16970;DHT22;8601;48.718;8.992;2023-06-10T02:48:54;16.90;82.00
16970;DHT22;8601;48.718;8.992;2023-06-10T02:51:21;16.80;81.40
16970;DHT22;8601;48.718;8.992;2023-06-10T02:53:48;16.80;82.20
16970;DHT22;8601;48.718;8.992;2023-06-10T02:56:16;16.80;82.40
16970;DHT22;8601;48.718;8.992;2023-06-10T02:58:43;16.70;82.80
16970;DHT22;8601;48.718;8.992;2023-06-10T03:01:11;16.60;82.90
16970;DHT22;8601;48.718;8.992;2023-06-10T03:03:39;16.50;83.20
16970;DHT22;8601;48.718;8.992;2023-06-10T03:06:08;16.40;83.20
16970;DHT22;8601;48.718;8.992;2023-06-10T03:08:35;16.30;84.00
16970;DHT22;8601;48.718;8.992;2023-06-10T03:11:02;16.30;84.20
16970;DHT22;8601;48.718;8.992;2023-06-10T03:13:29;16.20;84.90
16970;DHT22;8601;48.718;8.992;2023-06-10T03:15:56;16.10;85.40
16970;DHT22;8601;48.718;8.992;2023-06-10T03:18:26;16.10;85.40
16970;DHT22;8601;48.718;8.992;2023-06-10T03:20:54;16.10;85.50
16970;DHT22;8601;48.718;8.992;2023-06-10T03:23:22;16.10;85.50
16970;DHT22;8601;48.718;8.992;2023-06-10T03:25:49;16.10;85.50
16970;DHT22;8601;48.718;8.992;2023-06-10T03:28:16;16.20;85.50
16970;DHT22;8601;48.718;8.992;2023-06-10T03:30:44;16.20;85.60
16970;DHT22;8601;48.718;8.992;2023-06-10T03:33:10;16.20;85.90
16970;DHT22;8601;48.718;8.992;2023-06-10T03:35:38;16.20;85.70
16970;DHT22;8601;48.718;8.992;2023-06-10T03:38:06;16.20;85.60
16970;DHT22;8601;48.718;8.992;2023-06-10T03:40:33;16.20;85.60
16970;DHT22;8601;48.718;8.992;2023-06-10T03:43:00;16.20;85.90
16970;DHT22;8601;48.718;8.992;2023-06-10T03:45:27;16.10;86.20
16970;DHT22;8601;48.718;8.992;2023-06-10T03:47:54;16.10;86.50
16970;DHT22;8601;48.718;8.992;2023-06-10T03:50:22;16.10;87.10
16970;DHT22;8601;48.718;8.992;2023-06-10T03:52:50;16.20;86.50
16970;DHT22;8601;48.718;8.992;2023-06-10T03:55:18;16.20;86.20
16970;DHT22;8601;48.718;8.992;2023-06-10T03:57:47;16.20;86.10
16970;DHT22;8601;48.718;8.992;2023-06-10T04:00:15;16.20;85.70
16970;DHT22;8601;48.718;8.992;2023-06-10T04:02:43;16.20;85.70
16970;DHT22;8601;48.718;8.992;2023-06-10T04:05:12;16.10;86.10
16970;DHT22;8601;48.718;8.992;2023-06-10T04:07:40;16.20;86.20
16970;DHT22;8601;48.718;8.992;2023-06-10T04:10:08;16.20;86.50
16970;DHT22;8601;48.718;8.992;2023-06-10T04:12:37;16.20;86.40
16970;DHT22;8601;48.718;8.992;2023-06-10T04:15:05;16.20;86.50
16970;DHT22;8601;48.718;8.992;2023-06-10T04:17:32;16.20;86.70
16970;DHT22;8601;48.718;8.992;2023-06-10T04:19:59;16.20;86.70
16970;DHT22;8601;48.718;8.992;2023-06-10T04:22:28;16.10;87.10
16970;DHT22;8601;48.718;8.992;2023-06-10T04:24:54;16.20;87.10
16970;DHT22;8601;48.718;8.992;2023-06-10T04:27:21;16.30;86.80
16970;DHT22;8601;48.718;8.992;2023-06-10T04:29:49;16.30;87.20
16970;DHT22;8601;48.718;8.992;2023-06-10T04:32:18;16.30;86.90
16970;DHT22;8601;48.718;8.992;2023-06-10T04:34:44;16.10;87.40
16970;DHT22;8601;48.718;8.992;2023-06-10T04:37:11;16.00;87.70
16970;DHT22;8601;48.718;8.992;2023-06-10T04:39:38;16.10;88.10
16970;DHT22;8601;48.718;8.992;2023-06-10T04:42:07;16.10;88.50
16970;DHT22;8601;48.718;8.992;2023-06-10T04:44:34;16.30;87.80
16970;DHT22;8601;48.718;8.992;2023-06-10T04:47:03;16.30;87.30
16970;DHT22;8601;48.718;8.992;2023-06-10T04:49:30;16.40;87.50
16970;DHT22;8601;48.718;8.992;2023-06-10T04:51:57;16.40;87.50
16970;DHT22;8601;48.718;8.992;2023-06-10T04:54:25;16.40;88.40
16970;DHT22;8601;48.718;8.992;2023-06-10T04:56:52;16.50;88.40
16970;DHT22;8601;48.718;8.992;2023-06-10T04:59:19;16.50;87.80
16970;DHT22;8601;48.718;8.992;2023-06-10T05:01:46;16.50;87.80
16970;DHT22;8601;48.718;8.992;2023-06-10T05:04:15;16.50;87.70
16970;DHT22;8601;48.718;8.992;2023-06-10T05:06:42;16.60;87.70
16970;DHT22;8601;48.718;8.992;2023-06-10T05:09:09;16.60;88.00
16970;DHT22;8601;48.718;8.992;2023-06-10T05:11:36;16.60;88.00
16970;DHT22;8601;48.718;8.992;2023-06-10T05:14:03;16.60;88.20
16970;DHT22;8601;48.718;8.992;2023-06-10T05:16:30;16.60;88.80
16970;DHT22;8601;48.718;8.992;2023-06-10T05:18:57;16.50;89.90
16970;DHT22;8601;48.718;8.992;2023-06-10T05:21:25;16.60;90.30
16970;DHT22;8601;48.718;8.992;2023-06-10T05:23:53;16.50;90.70
16970;DHT22;8601;48.718;8.992;2023-06-10T05:26:20;16.60;90.90
16970;DHT22;8601;48.718;8.992;2023-06-10T05:28:47;16.70;90.80
16970;DHT22;8601;48.718;8.992;2023-06-10T05:31:14;16.80;90.50
16970;DHT22;8601;48.718;8.992;2023-06-10T05:33:41;16.90;90.50
16970;DHT22;8601;48.718;8.992;2023-06-10T05:36:08;17.10;90.20
16970;DHT22;8601;48.718;8.992;2023-06-10T05:38:37;17.20;90.40
16970;DHT22;8601;48.718;8.992;2023-06-10T05:41:04;17.20;90.40
16970;DHT22;8601;48.718;8.992;2023-06-10T05:43:30;17.30;90.40
16970;DHT22;8601;48.718;8.992;2023-06-10T05:45:57;17.30;90.30
16970;DHT22;8601;48.718;8.992;2023-06-10T05:48:24;17.40;90.20
16970;DHT22;8601;48.718;8.992;2023-06-10T05:50:51;17.40;90.40
16970;DHT22;8601;48.718;8.992;2023-06-10T05:53:18;17.50;90.50
16970;DHT22;8601;48.718;8.992;2023-06-10T05:55:46;17.60;90.30
16970;DHT22;8601;48.718;8.992;2023-06-10T05:58:13;17.90;89.70
16970;DHT22;8601;48.718;8.992;2023-06-10T06:00:41;18.00;89.90
16970;DHT22;8601;48.718;8.992;2023-06-10T06:03:09;18.10;90.20
16970;DHT22;8601;48.718;8.992;2023-06-10T06:05:36;18.10;90.20
16970;DHT22;8601;48.718;8.992;2023-06-10T06:08:04;18.20;90.20
16970;DHT22;8601;48.718;8.992;2023-06-10T06:10:31;18.40;88.40
16970;DHT22;8601;48.718;8.992;2023-06-10T06:13:00;18.50;88.90
16970;DHT22;8601;48.718;8.992;2023-06-10T06:15:27;18.60;88.00
16970;DHT22;8601;48.718;8.992;2023-06-10T06:17:54;18.60;87.50
16970;DHT22;8601;48.718;8.992;2023-06-10T06:20:21;18.70;88.00
16970;DHT22;8601;48.718;8.992;2023-06-10T06:22:48;18.80;87.00
16970;DHT22;8601;48.718;8.992;2023-06-10T06:25:15;18.90;86.80
16970;DHT22;8601;48.718;8.992;2023-06-10T06:27:42;19.00;86.30
16970;DHT22;8601;48.718;8.992;2023-06-10T06:30:11;19.00;86.60
16970;DHT22;8601;48.718;8.992;2023-06-10T06:32:38;19.20;86.10
16970;DHT22;8601;48.718;8.992;2023-06-10T06:35:05;19.30;85.80
16970;DHT22;8601;48.718;8.992;2023-06-10T06:37:33;19.40;85.40
16970;DHT22;8601;48.718;8.992;2023-06-10T06:40:00;19.60;84.70
16970;DHT22;8601;48.718;8.992;2023-06-10T06:42:27;19.80;83.50
16970;DHT22;8601;48.718;8.992;2023-06-10T06:44:54;20.00;81.60
16970;DHT22;8601;48.718;8.992;2023-06-10T06:47:22;20.10;81.30
16970;DHT22;8601;48.718;8.992;2023-06-10T06:49:50;20.10;81.90
16970;DHT22;8601;48.718;8.992;2023-06-10T06:52:17;20.30;80.00
16970;DHT22;8601;48.718;8.992;2023-06-10T06:54:44;20.30;80.60
16970;DHT22;8601;48.718;8.992;2023-06-10T06:57:11;20.40;80.80
16970;DHT22;8601;48.718;8.992;2023-06-10T06:59:38;20.60;78.60
16970;DHT22;8601;48.718;8.992;2023-06-10T07:02:05;20.60;79.80
16970;DHT22;8601;48.718;8.992;2023-06-10T07:04:34;20.50;79.40
16970;DHT22;8601;48.718;8.992;2023-06-10T07:07:01;20.60;80.50
16970;DHT22;8601;48.718;8.992;2023-06-10T07:09:28;20.60;79.50
16970;DHT22;8601;48.718;8.992;2023-06-10T07:11:55;20.70;78.50
16970;DHT22;8601;48.718;8.992;2023-06-10T07:14:22;20.70;78.80
16970;DHT22;8601;48.718;8.992;2023-06-10T07:16:49;20.90;79.00
16970;DHT22;8601;48.718;8.992;2023-06-10T07:19:16;21.00;78.90
16970;DHT22;8601;48.718;8.992;2023-06-10T07:21:44;21.10;79.00
16970;DHT22;8601;48.718;8.992;2023-06-10T07:24:11;21.10;77.30
16970;DHT22;8601;48.718;8.992;2023-06-10T07:26:37;21.20;78.00
16970;DHT22;8601;48.718;8.992;2023-06-10T07:29:04;21.30;77.70
16970;DHT22;8601;48.718;8.992;2023-06-10T07:31:31;21.50;74.40
16970;DHT22;8601;48.718;8.992;2023-06-10T07:33:58;21.60;75.20
16970;DHT22;8601;48.718;8.992;2023-06-10T07:36:26;21.60;75.50
16970;DHT22;8601;48.718;8.992;2023-06-10T07:38:55;21.50;76.20
16970;DHT22;8601;48.718;8.992;2023-06-10T07:41:23;21.60;74.80
16970;DHT22;8601;48.718;8.992;2023-06-10T07:43:51;21.60;75.80
16970;DHT22;8601;48.718;8.992;2023-06-10T07:46:20;21.80;73.40
16970;DHT22;8601;48.718;8.992;2023-06-10T07:48:47;21.80;74.70
16970;DHT22;8601;48.718;8.992;2023-06-10T07:51:15;22.00;73.00
16970;DHT22;8601;48.718;8.992;2023-06-10T07:53:43;22.00;74.00
16970;DHT22;8601;48.718;8.992;2023-06-10T07:56:11;22.10;73.10
16970;DHT22;8601;48.718;8.992;2023-06-10T07:58:39;22.00;73.00
16970;DHT22;8601;48.718;8.992;2023-06-10T08:01:05;22.10;73.20
16970;DHT22;8601;48.718;8.992;2023-06-10T08:03:33;22.40;72.50
16970;DHT22;8601;48.718;8.992;2023-06-10T08:06:00;22.70;70.40
16970;DHT22;8601;48.718;8.992;2023-06-10T08:08:26;22.80;70.70
16970;DHT22;8601;48.718;8.992;2023-06-10T08:10:53;23.10;70.20
16970;DHT22;8601;48.718;8.992;2023-06-10T08:13:22;23.00;71.10
16970;DHT22;8601;48.718;8.992;2023-06-10T08:15:49;23.10;70.10
16970;DHT22;8601;48.718;8.992;2023-06-10T08:18:19;23.20;70.60
16970;DHT22;8601;48.718;8.992;2023-06-10T08:20:46;23.10;70.50
16970;DHT22;8601;48.718;8.992;2023-06-10T08:23:14;23.30;68.90
16970;DHT22;8601;48.718;8.992;2023-06-10T08:25:41;23.30;70.10
16970;DHT22;8601;48.718;8.992;2023-06-10T08:28:08;23.50;68.30
16970;DHT22;8601;48.718;8.992;2023-06-10T08:30:36;23.70;68.30
16970;DHT22;8601;48.718;8.992;2023-06-10T08:33:03;23.80;68.50
16970;DHT22;8601;48.718;8.992;2023-06-10T08:35:30;24.00;66.80
16970;DHT22;8601;48.718;8.992;2023-06-10T08:37:57;24.10;66.40
16970;DHT22;8601;48.718;8.992;2023-06-10T08:40:24;24.10;66.20
16970;DHT22;8601;48.718;8.992;2023-06-10T08:43:00;24.20;64.60
16970;DHT22;8601;48.718;8.992;2023-06-10T08:45:30;24.30;65.20
16970;DHT22;8601;48.718;8.992;2023-06-10T08:47:59;24.40;65.70
16970;DHT22;8601;48.718;8.992;2023-06-10T08:50:28;24.60;64.90
16970;DHT22;8601;48.718;8.992;2023-06-10T08:52:58;24.60;65.60
16970;DHT22;8601;48.718;8.992;2023-06-10T08:55:29;24.70;64.90
16970;DHT22;8601;48.718;8.992;2023-06-10T08:57:57;25.00;63.80
16970;DHT22;8601;48.718;8.992;2023-06-10T09:00:26;25.20;63.10
16970;DHT22;8601;48.718;8.992;2023-06-10T09:02:54;25.40;62.50
16970;DHT22;8601;48.718;8.992;2023-06-10T09:05:23;25.50;62.70
16970;DHT22;8601;48.718;8.992;2023-06-10T09:07:51;25.50;62.00
16970;DHT22;8601;48.718;8.992;2023-06-10T09:10:19;25.70;60.70
16970;DHT22;8601;48.718;8.992;2023-06-10T09:12:46;25.70;61.00
16970;DHT22;8601;48.718;8.992;2023-06-10T09:15:13;25.80;60.50
16970;DHT22;8601;48.718;8.992;2023-06-10T09:17:42;26.00;62.40
16970;DHT22;8601;48.718;8.992;2023-06-10T09:20:10;25.90;61.00
16970;DHT22;8601;48.718;8.992;2023-06-10T09:22:40;26.10;59.60
16970;DHT22;8601;48.718;8.992;2023-06-10T09:25:09;26.30;59.70
16970;DHT22;8601;48.718;8.992;2023-06-10T09:27:45;26.30;59.70
16970;DHT22;8601;48.718;8.992;2023-06-10T09:30:24;26.30;58.70
16970;DHT22;8601;48.718;8.992;2023-06-10T09:32:53;26.10;59.30
16970;DHT22;8601;48.718;8.992;2023-06-10T09:35:22;26.10;59.80
16970;DHT22;8601;48.718;8.992;2023-06-10T09:37:52;26.40;58.60
16970;DHT22;8601;48.718;8.992;2023-06-10T09:40:19;26.50;59.40
16970;DHT22;8601;48.718;8.992;2023-06-10T09:42:46;26.80;59.20
16970;DHT22;8601;48.718;8.992;2023-06-10T09:45:20;26.70;58.20
16970;DHT22;8601;48.718;8.992;2023-06-10T09:47:51;26.60;58.60
16970;DHT22;8601;48.718;8.992;2023-06-10T09:50:18;27.00;58.40
16970;DHT22;8601;48.718;8.992;2023-06-10T09:52:46;27.40;57.10
16970;DHT22;8601;48.718;8.992;2023-06-10T09:55:15;27.20;56.70
16970;DHT22;8601;48.718;8.992;2023-06-10T09:57:42;27.00;56.70
16970;DHT22;8601;48.718;8.992;2023-06-10T10:00:14;26.40;57.90
16970;DHT22;8601;48.718;8.992;2023-06-10T10:02:45;26.20;59.10
16970;DHT22;8601;48.718;8.992;2023-06-10T10:05:14;26.20;58.40
16970;DHT22;8601;48.718;8.992;2023-06-10T10:07:42;26.00;58.50
16970;DHT22;8601;48.718;8.992;2023-06-10T10:10:09;26.10;59.80
16970;DHT22;8601;48.718;8.992;2023-06-10T10:12:39;26.40;58.40
16970;DHT22;8601;48.718;8.992;2023-06-10T10:15:07;26.60;57.90
16970;DHT22;8601;48.718;8.992;2023-06-10T10:17:37;26.10;58.60
16970;DHT22;8601;48.718;8.992;2023-06-10T10:20:08;25.90;58.70
16970;DHT22;8601;48.718;8.992;2023-06-10T10:22:37;26.20;59.80
16970;DHT22;8601;48.718;8.992;2023-06-10T10:25:10;26.60;58.80
16970;DHT22;8601;48.718;8.992;2023-06-10T10:27:44;26.90;57.80
16970;DHT22;8601;48.718;8.992;2023-06-10T10:30:12;27.40;56.10
16970;DHT22;8601;48.718;8.992;2023-06-10T10:32:50;27.60;56.10
16970;DHT22;8601;48.718;8.992;2023-06-10T10:35:21;27.80;54.70
16970;DHT22;8601;48.718;8.992;2023-06-10T10:37:49;28.30;53.80
16970;DHT22;8601;48.718;8.992;2023-06-10T10:40:24;28.50;52.40
16970;DHT22;8601;48.718;8.992;2023-06-10T10:46:12;28.30;53.60
16970;DHT22;8601;48.718;8.992;2023-06-10T10:48:41;28.00;53.90
16970;DHT22;8601;48.718;8.992;2023-06-10T10:51:26;27.40;54.00
16970;DHT22;8601;48.718;8.992;2023-06-10T10:54:27;27.00;54.50
16970;DHT22;8601;48.718;8.992;2023-06-10T10:57:31;26.80;55.50
16970;DHT22;8601;48.718;8.992;2023-06-10T11:03:44;26.30;56.30
16970;DHT22;8601;48.718;8.992;2023-06-10T11:06:15;26.40;56.00
16970;DHT22;8601;48.718;8.992;2023-06-10T11:08:49;27.00;55.20
16970;DHT22;8601;48.718;8.992;2023-06-10T11:11:21;27.40;53.70
16970;DHT22;8601;48.718;8.992;2023-06-10T11:13:58;27.60;54.40
16970;DHT22;8601;48.718;8.992;2023-06-10T11:16:39;28.00;54.00
16970;DHT22;8601;48.718;8.992;2023-06-10T11:19:08;28.30;53.20
16970;DHT22;8601;48.718;8.992;2023-06-10T11:21:57;28.50;52.10
16970;DHT22;8601;48.718;8.992;2023-06-10T11:24:25;28.90;52.70
16970;DHT22;8601;48.718;8.992;2023-06-10T11:26:52;29.20;51.60
16970;DHT22;8601;48.718;8.992;2023-06-10T11:29:21;29.40;50.50
16970;DHT22;8601;48.718;8.992;2023-06-10T11:31:51;29.50;50.40
16970;DHT22;8601;48.718;8.992;2023-06-10T11:34:25;29.30;50.20
16970;DHT22;8601;48.718;8.992;2023-06-10T11:36:53;29.30;51.70
16970;DHT22;8601;48.718;8.992;2023-06-10T11:39:21;29.40;50.80
16970;DHT22;8601;48.718;8.992;2023-06-10T11:41:51;29.20;50.10
16970;DHT22;8601;48.718;8.992;2023-06-10T11:44:19;28.90;51.30
16970;DHT22;8601;48.718;8.992;2023-06-10T11:46:48;28.90;52.20
16970;DHT22;8601;48.718;8.992;2023-06-10T11:49:15;28.90;52.80
16970;DHT22;8601;48.718;8.992;2023-06-10T11:51:43;28.50;52.90
16970;DHT22;8601;48.718;8.992;2023-06-10T11:54:17;28.40;52.70
16970;DHT22;8601;48.718;8.992;2023-06-10T11:56:44;28.40;52.60
16970;DHT22;8601;48.718;8.992;2023-06-10T11:59:11;28.30;51.80
16970;DHT22;8601;48.718;8.992;2023-06-10T12:01:44;28.40;53.00
16970;DHT22;8601;48.718;8.992;2023-06-10T12:04:11;28.00;52.60
16970;DHT22;8601;48.718;8.992;2023-06-10T12:06:40;27.70;53.00
16970;DHT22;8601;48.718;8.992;2023-06-10T12:09:15;28.00;53.90
16970;DHT22;8601;48.718;8.992;2023-06-10T12:11:42;28.10;53.30
16970;DHT22;8601;48.718;8.992;2023-06-10T12:14:10;28.30;52.60
16970;DHT22;8601;48.718;8.992;2023-06-10T12:16:37;28.40;51.10
16970;DHT22;8601;48.718;8.992;2023-06-10T12:19:04;28.40;50.30
16970;DHT22;8601;48.718;8.992;2023-06-10T12:21:33;28.10;52.90
16970;DHT22;8601;48.718;8.992;2023-06-10T12:24:05;27.80;53.20
16970;DHT22;8601;48.718;8.992;2023-06-10T12:26:41;27.70;53.10
16970;DHT22;8601;48.718;8.992;2023-06-10T12:29:21;27.80;53.10
16970;DHT22;8601;48.718;8.992;2023-06-10T12:31:57;27.80;52.20
16970;DHT22;8601;48.718;8.992;2023-06-10T12:34:32;27.40;52.60
16970;DHT22;8601;48.718;8.992;2023-06-10T12:36:59;27.40;53.10
16970;DHT22;8601;48.718;8.992;2023-06-10T12:39:26;27.90;52.90
16970;DHT22;8601;48.718;8.992;2023-06-10T12:41:55;28.20;53.30
16970;DHT22;8601;48.718;8.992;2023-06-10T12:44:29;28.30;49.90
16970;DHT22;8601;48.718;8.992;2023-06-10T12:46:56;28.10;52.30
16970;DHT22;8601;48.718;8.992;2023-06-10T12:49:23;27.70;52.50
16970;DHT22;8601;48.718;8.992;2023-06-10T12:51:52;27.60;52.70
16970;DHT22;8601;48.718;8.992;2023-06-10T12:54:19;27.60;54.20
16970;DHT22;8601;48.718;8.992;2023-06-10T12:56:46;27.40;54.20
16970;DHT22;8601;48.718;8.992;2023-06-10T12:59:15;27.20;54.30
16970;DHT22;8601;48.718;8.992;2023-06-10T13:01:42;27.00;56.10
16970;DHT22;8601;48.718;8.992;2023-06-10T13:04:08;26.90;54.60
16970;DHT22;8601;48.718;8.992;2023-06-10T13:06:35;26.70;55.00
16970;DHT22;8601;48.718;8.992;2023-06-10T13:09:05;26.60;55.20
16970;DHT22;8601;48.718;8.992;2023-06-10T13:11:33;26.70;54.80
16970;DHT22;8601;48.718;8.992;2023-06-10T13:14:00;27.00;53.20
16970;DHT22;8601;48.718;8.992;2023-06-10T13:16:29;27.60;52.10
16970;DHT22;8601;48.718;8.992;2023-06-10T13:18:56;27.70;52.20
16970;DHT22;8601;48.718;8.992;2023-06-10T13:21:24;27.30;53.40
16970;DHT22;8601;48.718;8.992;2023-06-10T13:23:51;27.20;53.60
16970;DHT22;8601;48.718;8.992;2023-06-10T13:26:18;27.10;52.80
16970;DHT22;8601;48.718;8.992;2023-06-10T13:28:45;27.00;54.90
16970;DHT22;8601;48.718;8.992;2023-06-10T13:31:11;26.90;53.70
16970;DHT22;8601;48.718;8.992;2023-06-10T13:33:40;26.90;54.20
16970;DHT22;8601;48.718;8.992;2023-06-10T13:36:09;26.80;54.50
16970;DHT22;8601;48.718;8.992;2023-06-10T13:38:36;26.80;55.00
16970;DHT22;8601;48.718;8.992;2023-06-10T13:41:03;27.20;53.90
16970;DHT22;8601;48.718;8.992;2023-06-10T13:43:30;27.60;54.70
16970;DHT22;8601;48.718;8.992;2023-06-10T13:45:56;28.00;54.20
16970;DHT22;8601;48.718;8.992;2023-06-10T13:48:23;28.30;52.40
16970;DHT22;8601;48.718;8.992;2023-06-10T13:50:52;28.50;51.30
16970;DHT22;8601;48.718;8.992;2023-06-10T13:53:19;28.40;51.30
16970;DHT22;8601;48.718;8.992;2023-06-10T13:55:45;28.70;52.40
16970;DHT22;8601;48.718;8.992;2023-06-10T13:58:12;28.70;50.00
16970;DHT22;8601;48.718;8.992;2023-06-10T14:00:39;28.70;50.10
16970;DHT22;8601;48.718;8.992;2023-06-10T14:03:06;29.00;49.70
16970;DHT22;8601;48.718;8.992;2023-06-10T14:05:34;29.10;49.70
16970;DHT22;8601;48.718;8.992;2023-06-10T14:08:02;29.10;48.40
16970;DHT22;8601;48.718;8.992;2023-06-10T14:10:29;29.00;49.50
16970;DHT22;8601;48.718;8.992;2023-06-10T14:12:56;28.70;49.00
16970;DHT22;8601;48.718;8.992;2023-06-10T14:15:23;28.70;49.00
16970;DHT22;8601;48.718;8.992;2023-06-10T14:17:50;28.60;49.50
16970;DHT22;8601;48.718;8.992;2023-06-10T14:20:17;28.30;50.00
16970;DHT22;8601;48.718;8.992;2023-06-10T14:22:44;28.20;50.20
16970;DHT22;8601;48.718;8.992;2023-06-10T14:25:12;27.90;50.20
16970;DHT22;8601;48.718;8.992;2023-06-10T14:27:39;27.80;50.70
16970;DHT22;8601;48.718;8.992;2023-06-10T14:30:07;27.70;51.00
16970;DHT22;8601;48.718;8.992;2023-06-10T14:32:34;27.60;51.60
16970;DHT22;8601;48.718;8.992;2023-06-10T14:35:01;28.00;50.30
16970;DHT22;8601;48.718;8.992;2023-06-10T14:37:28;28.20;50.60
16970;DHT22;8601;48.718;8.992;2023-06-10T14:39:55;28.10;50.20
16970;DHT22;8601;48.718;8.992;2023-06-10T14:42:24;27.80;50.50
16970;DHT22;8601;48.718;8.992;2023-06-10T14:44:51;27.50;51.90
16970;DHT22;8601;48.718;8.992;2023-06-10T14:47:17;27.30;51.90
16970;DHT22;8601;48.718;8.992;2023-06-10T14:49:44;27.20;52.50
16970;DHT22;8601;48.718;8.992;2023-06-10T14:52:11;27.40;51.90
16970;DHT22;8601;48.718;8.992;2023-06-10T14:54:38;27.70;50.40
16970;DHT22;8601;48.718;8.992;2023-06-10T14:57:06;27.90;49.80
16970;DHT22;8601;48.718;8.992;2023-06-10T14:59:34;28.10;48.90
16970;DHT22;8601;48.718;8.992;2023-06-10T15:02:01;28.20;50.00
16970;DHT22;8601;48.718;8.992;2023-06-10T15:04:28;28.40;49.40
16970;DHT22;8601;48.718;8.992;2023-06-10T15:06:55;28.50;48.60
16970;DHT22;8601;48.718;8.992;2023-06-10T15:09:22;28.70;50.20
16970;DHT22;8601;48.718;8.992;2023-06-10T15:11:48;28.80;48.30
16970;DHT22;8601;48.718;8.992;2023-06-10T15:14:15;29.00;48.90
16970;DHT22;8601;48.718;8.992;2023-06-10T15:16:44;28.90;49.70
16970;DHT22;8601;48.718;8.992;2023-06-10T15:19:10;29.00;49.20
16970;DHT22;8601;48.718;8.992;2023-06-10T15:21:37;29.10;49.30
16970;DHT22;8601;48.718;8.992;2023-06-10T15:24:05;29.10;49.20
16970;DHT22;8601;48.718;8.992;2023-06-10T15:26:32;29.30;49.70
16970;DHT22;8601;48.718;8.992;2023-06-10T15:28:59;28.90;49.50
16970;DHT22;8601;48.718;8.992;2023-06-10T15:31:29;28.40;50.10
16970;DHT22;8601;48.718;8.992;2023-06-10T15:33:58;28.20;50.00
16970;DHT22;8601;48.718;8.992;2023-06-10T15:36:25;28.00;51.20
16970;DHT22;8601;48.718;8.992;2023-06-10T15:38:52;27.80;51.00
16970;DHT22;8601;48.718;8.992;2023-06-10T15:41:19;27.80;51.10
16970;DHT22;8601;48.718;8.992;2023-06-10T15:43:47;27.90;50.50
16970;DHT22;8601;48.718;8.992;2023-06-10T15:46:14;28.10;49.30
16970;DHT22;8601;48.718;8.992;2023-06-10T15:48:41;28.20;51.20
16970;DHT22;8601;48.718;8.992;2023-06-10T15:51:09;28.40;50.40
16970;DHT22;8601;48.718;8.992;2023-06-10T15:53:36;28.50;50.40
16970;DHT22;8601;48.718;8.992;2023-06-10T15:56:03;28.40;50.60
16970;DHT22;8601;48.718;8.992;2023-06-10T15:58:30;28.60;50.70